createdAt,value
2023-01-27T00:00:53.634Z,-0.21
2023-01-27T00:04:43.316Z,-0.19
2023-01-27T00:07:34.631Z,-0.18
2023-01-27T00:10:24.521Z,-0.18
2023-01-27T00:13:27.606Z,-0.19
2023-01-27T00:16:15.924Z,-0.21
2023-01-27T00:18:59.191Z,-0.26
2023-01-27T00:22:06.973Z,-0.30
2023-01-27T00:24:57.039Z,-0.34
2023-01-27T00:27:47.788Z,-0.35
2023-01-27T00:30:37.141Z,-0.35
2023-01-27T00:33:27.107Z,-0.33
2023-01-27T00:36:16.707Z,-0.31
2023-01-27T00:39:08.211Z,-0.26
2023-01-27T00:41:57.604Z,-0.23
2023-01-27T00:45:02.489Z,-0.20
2023-01-27T00:47:52.421Z,-0.22
2023-01-27T00:50:42.566Z,-0.21
2023-01-27T00:53:31.964Z,-0.22
2023-01-27T00:56:21.521Z,-0.25
2023-01-27T00:59:10.922Z,-0.30
2023-01-27T01:02:00.911Z,-0.39
2023-01-27T01:04:50.138Z,-0.48
2023-01-27T01:07:40.993Z,-0.52
2023-01-27T01:10:30.205Z,-0.53
2023-01-27T01:13:19.747Z,-0.52
2023-01-27T01:16:12.283Z,-0.49
2023-01-27T01:19:01.395Z,-0.42
2023-01-27T01:21:50.858Z,-0.34
2023-01-27T01:24:39.057Z,-0.29
2023-01-27T01:27:29.676Z,-0.29
2023-01-27T01:30:26.189Z,-0.31
2023-01-27T01:33:16.195Z,-0.32
2023-01-27T01:36:08.196Z,-0.38
2023-01-27T01:38:57.407Z,-0.43
2023-01-27T01:41:47.922Z,-0.47
2023-01-27T01:44:31.790Z,-0.50
2023-01-27T01:47:21.810Z,-0.52
2023-01-27T01:50:11.550Z,-0.57
2023-01-27T01:53:04.234Z,-0.59
2023-01-27T01:55:48.077Z,-0.61
2023-01-27T01:58:30.796Z,-0.62
2023-01-27T02:01:22.664Z,-0.63
2023-01-27T02:04:17.911Z,-0.62
2023-01-27T02:07:11.552Z,-0.62
2023-01-27T02:10:01.899Z,-0.56
2023-01-27T02:12:55.555Z,-0.52
2023-01-27T02:15:55.496Z,-0.49
2023-01-27T02:18:46.268Z,-0.44
2023-01-27T02:21:35.729Z,-0.40
2023-01-27T02:24:33.218Z,-0.38
2023-01-27T02:27:28.534Z,-0.38
2023-01-27T02:30:21.867Z,-0.41
2023-01-27T02:33:15.002Z,-0.44
2023-01-27T02:36:07.254Z,-0.47
2023-01-27T02:38:59.316Z,-0.51
2023-01-27T02:41:52.480Z,-0.57
2023-01-27T02:44:41.824Z,-0.58
2023-01-27T02:47:31.112Z,-0.55
2023-01-27T02:50:21.410Z,-0.49
2023-01-27T02:53:11.435Z,-0.44
2023-01-27T02:56:00.449Z,-0.37
2023-01-27T02:58:48.889Z,-0.30
2023-01-27T03:01:38.421Z,-0.25
2023-01-27T03:04:26.469Z,-0.25
2023-01-27T03:07:21.290Z,-0.27
2023-01-27T03:10:12.240Z,-0.29
2023-01-27T03:13:00.157Z,-0.36
2023-01-27T03:16:08.641Z,-0.42
2023-01-27T03:18:58.916Z,-0.49
2023-01-27T03:21:50.582Z,-0.56
2023-01-27T03:24:39.830Z,-0.60
2023-01-27T03:27:30.153Z,-0.59
2023-01-27T03:30:34.438Z,-0.57
2023-01-27T03:33:23.346Z,-0.54
2023-01-27T03:36:34.023Z,-0.49
2023-01-27T03:39:41.616Z,-0.43
2023-01-27T03:42:49.771Z,-0.38
2023-01-27T03:45:57.826Z,-0.42
2023-01-27T03:48:51.198Z,-0.48
2023-01-27T03:51:40.034Z,-0.54
2023-01-27T03:54:28.513Z,-0.55
2023-01-27T03:57:18.434Z,-0.54
2023-01-27T04:00:11.566Z,-0.57
2023-01-27T04:03:21.700Z,-0.55
2023-01-27T04:06:31.388Z,-0.53
2023-01-27T04:09:22.966Z,-0.53
2023-01-27T04:12:12.716Z,-0.56
2023-01-27T04:15:00.924Z,-0.61
2023-01-27T04:17:50.916Z,-0.64
2023-01-27T04:20:39.970Z,-0.64
2023-01-27T04:23:29.747Z,-0.65
2023-01-27T04:26:19.734Z,-0.66
2023-01-27T04:29:10.881Z,-0.67
2023-01-27T04:32:00.855Z,-0.68
2023-01-27T04:34:42.422Z,-0.69
2023-01-27T04:37:31.624Z,-0.67
2023-01-27T04:40:22.191Z,-0.61
2023-01-27T04:43:11.426Z,-0.55
2023-01-27T04:46:05.004Z,-0.54
2023-01-27T04:48:57.850Z,-0.62
2023-01-27T04:51:48.396Z,-0.67
2023-01-27T04:54:37.942Z,-0.65
2023-01-27T04:57:33.070Z,-0.63
2023-01-27T05:00:23.561Z,-0.66
2023-01-27T05:03:13.149Z,-0.69
2023-01-27T05:06:04.265Z,-0.61
2023-01-27T05:08:49.195Z,-0.52
2023-01-27T05:11:39.070Z,-0.50
2023-01-27T05:14:29.612Z,-0.53
2023-01-27T05:17:24.157Z,-0.57
2023-01-27T05:20:16.710Z,-0.65
2023-01-27T05:23:25.074Z,-0.72
2023-01-27T05:26:16.537Z,-0.77
2023-01-27T05:29:06.676Z,-0.83
2023-01-27T05:31:56.613Z,-0.90
2023-01-27T05:34:46.709Z,-0.93
2023-01-27T05:37:36.478Z,-0.92
2023-01-27T05:40:24.996Z,-0.88
2023-01-27T05:43:15.134Z,-0.82
2023-01-27T05:46:07.433Z,-0.76
2023-01-27T05:48:59.564Z,-0.68
2023-01-27T05:51:49.409Z,-0.65
2023-01-27T05:54:38.709Z,-0.72
2023-01-27T05:57:30.439Z,-0.83
2023-01-27T06:00:26.108Z,-0.94
2023-01-27T06:03:15.637Z,-1.03
2023-01-27T06:06:07.920Z,-1.05
2023-01-27T06:08:58.998Z,-0.98
2023-01-27T06:11:48.864Z,-0.94
2023-01-27T06:14:39.748Z,-0.99
2023-01-27T06:17:29.861Z,-1.09
2023-01-27T06:20:21.756Z,-1.21
2023-01-27T06:23:06.451Z,-1.28
2023-01-27T06:25:57.302Z,-1.33
2023-01-27T06:28:47.313Z,-1.33
2023-01-27T06:31:37.107Z,-1.31
2023-01-27T06:34:26.644Z,-1.28
2023-01-27T06:37:21.972Z,-1.23
2023-01-27T06:40:05.433Z,-1.20
2023-01-27T06:42:55.803Z,-1.16
2023-01-27T06:45:47.719Z,-1.12
2023-01-27T06:48:37.731Z,-1.10
2023-01-27T06:51:29.759Z,-1.10
2023-01-27T06:54:12.049Z,-1.09
2023-01-27T06:57:01.678Z,-1.07
2023-01-27T06:59:50.957Z,-1.00
2023-01-27T07:02:41.365Z,-0.90
2023-01-27T07:05:31.850Z,-0.83
2023-01-27T07:08:24.282Z,-0.76
2023-01-27T07:11:13.846Z,-0.68
2023-01-27T07:14:04.054Z,-0.58
2023-01-27T07:16:53.337Z,-0.47
2023-01-27T07:19:49.100Z,-0.34
2023-01-27T07:22:33.161Z,-0.22
2023-01-27T07:25:26.371Z,-0.14
2023-01-27T07:28:15.659Z,-0.08
2023-01-27T07:31:05.606Z,-0.03
2023-01-27T07:34:01.268Z,0.04
2023-01-27T07:36:54.134Z,0.05
2023-01-27T07:39:47.687Z,0.07
2023-01-27T07:42:31.113Z,0.08
2023-01-27T07:45:22.271Z,0.07
2023-01-27T07:48:15.281Z,0.07
2023-01-27T07:51:04.456Z,0.07
2023-01-27T07:53:53.665Z,0.13
2023-01-27T07:56:42.842Z,0.21
2023-01-27T07:59:31.211Z,0.30
2023-01-27T08:02:22.030Z,0.39
2023-01-27T08:05:13.760Z,0.45
2023-01-27T08:08:04.015Z,0.49
2023-01-27T08:10:54.121Z,0.54
2023-01-27T08:13:44.712Z,0.57
2023-01-27T08:16:37.835Z,0.62
2023-01-27T08:19:27.114Z,0.67
2023-01-27T08:22:21.401Z,0.74
2023-01-27T08:25:05.057Z,0.79
2023-01-27T08:27:44.668Z,0.83
2023-01-27T08:30:34.060Z,0.85
2023-01-27T08:33:24.515Z,0.92
2023-01-27T08:36:16.397Z,1.00
2023-01-27T08:39:06.311Z,1.10
2023-01-27T08:41:55.693Z,1.23
2023-01-27T08:44:45.580Z,1.40
2023-01-27T08:47:35.106Z,1.51
2023-01-27T08:50:24.833Z,1.56
2023-01-27T08:53:16.772Z,1.57
2023-01-27T08:56:03.403Z,1.62
2023-01-27T08:58:52.622Z,1.75
2023-01-27T09:01:43.307Z,1.86
2023-01-27T09:04:32.577Z,1.94
2023-01-27T09:07:45.528Z,2.01
2023-01-27T09:10:38.086Z,1.99
2023-01-27T09:13:28.532Z,1.93
2023-01-27T09:16:17.630Z,1.89
2023-01-27T09:19:01.372Z,1.85
2023-01-27T09:21:50.822Z,1.89
2023-01-27T09:24:39.981Z,1.95
2023-01-27T09:27:39.283Z,2.04
2023-01-27T09:30:30.089Z,2.06
2023-01-27T09:33:20.392Z,2.02
2023-01-27T09:36:14.316Z,1.97
2023-01-27T09:39:10.099Z,1.95
2023-01-27T09:42:05.344Z,1.93
2023-01-27T09:45:15.694Z,2.00
2023-01-27T09:48:21.278Z,2.13
2023-01-27T09:51:22.003Z,2.27
2023-01-27T09:54:38.566Z,2.47
2023-01-27T09:57:40.810Z,2.57
2023-01-27T10:00:43.245Z,2.68
2023-01-27T10:04:12.732Z,2.84
2023-01-27T10:07:25.102Z,3.08
2023-01-27T10:10:27.054Z,3.16
2023-01-27T10:13:29.546Z,3.22
2023-01-27T10:16:34.579Z,3.36
2023-01-27T10:19:47.901Z,3.41
2023-01-27T10:22:46.708Z,3.42
2023-01-27T10:25:50.838Z,3.42
2023-01-27T10:28:47.381Z,3.34
2023-01-27T10:31:43.688Z,3.32
2023-01-27T10:34:37.306Z,3.32
2023-01-27T10:37:36.283Z,3.33
2023-01-27T10:40:31.190Z,3.27
2023-01-27T10:43:32.242Z,3.22
2023-01-27T10:46:48.398Z,3.14
2023-01-27T10:49:42.475Z,3.06
2023-01-27T10:52:37.774Z,2.93
2023-01-27T10:55:40.119Z,2.77
2023-01-27T10:58:42.581Z,2.64
2023-01-27T11:01:37.037Z,2.58
2023-01-27T11:04:34.692Z,2.57
2023-01-27T11:07:26.049Z,2.63
2023-01-27T11:10:20.655Z,2.58
2023-01-27T11:13:12.843Z,2.50
2023-01-27T11:16:04.561Z,2.43
2023-01-27T11:19:00.747Z,2.36
2023-01-27T11:22:06.797Z,2.29
2023-01-27T11:25:06.193Z,2.17
2023-01-27T11:28:12.763Z,2.08
2023-01-27T11:31:24.850Z,2.00
2023-01-27T11:34:21.635Z,1.93
2023-01-27T11:37:42.869Z,1.87
2023-01-27T11:40:35.563Z,1.83
2023-01-27T11:43:28.028Z,1.78
2023-01-27T11:46:21.392Z,1.73
2023-01-27T11:49:12.182Z,1.73
2023-01-27T11:52:09.380Z,1.67
2023-01-27T11:55:07.329Z,1.61
2023-01-27T11:58:11.110Z,1.56
2023-01-27T12:01:03.384Z,1.54
2023-01-27T12:03:58.892Z,1.55
2023-01-27T12:06:53.277Z,1.57
2023-01-27T12:09:43.157Z,1.54
2023-01-27T12:12:37.991Z,1.54
2023-01-27T12:15:30.916Z,1.55
2023-01-27T12:18:23.591Z,1.53
2023-01-27T12:21:14.039Z,1.50
2023-01-27T12:24:05.831Z,1.48
2023-01-27T12:26:56.108Z,1.45
2023-01-27T12:29:54.803Z,1.42
2023-01-27T12:32:47.022Z,1.40
2023-01-27T12:35:37.613Z,1.41
2023-01-27T12:38:32.723Z,1.41
2023-01-27T12:41:26.988Z,1.39
2023-01-27T12:44:17.094Z,1.38
2023-01-27T12:47:04.657Z,1.39
2023-01-27T12:50:27.161Z,1.38
2023-01-27T12:53:17.993Z,1.36
2023-01-27T12:56:14.404Z,1.34
2023-01-27T12:59:13.318Z,1.32
2023-01-27T13:02:26.549Z,1.31
2023-01-27T13:05:18.449Z,1.34
2023-01-27T13:08:17.271Z,1.37
2023-01-27T13:11:05.937Z,1.37
2023-01-27T13:13:58.632Z,1.42
2023-01-27T13:16:55.320Z,1.46
2023-01-27T13:19:55.065Z,1.48
2023-01-27T13:22:47.704Z,1.46
2023-01-27T13:25:43.123Z,1.45
2023-01-27T13:28:51.120Z,1.42
2023-01-27T13:31:49.313Z,1.37
2023-01-27T13:34:45.644Z,1.34
2023-01-27T13:37:43.344Z,1.32
2023-01-27T13:40:37.350Z,1.32
2023-01-27T13:43:32.145Z,1.32
2023-01-27T13:46:36.197Z,1.31
2023-01-27T13:49:25.772Z,1.30
2023-01-27T13:52:18.876Z,1.26
2023-01-27T13:55:13.455Z,1.20
2023-01-27T13:58:10.675Z,1.13
2023-01-27T14:01:07.422Z,1.10
2023-01-27T14:04:37.597Z,1.09
2023-01-27T14:07:39.247Z,1.06
2023-01-27T14:10:36.614Z,1.02
2023-01-27T14:13:41.228Z,0.97
2023-01-27T14:17:03.548Z,0.89
2023-01-27T14:20:10.844Z,0.84
2023-01-27T14:23:21.571Z,0.82
2023-01-27T14:26:21.684Z,0.84
2023-01-27T14:29:23.890Z,0.86
2023-01-27T14:32:24.036Z,0.84
2023-01-27T14:35:33.305Z,0.84
2023-01-27T14:38:31.794Z,0.84
2023-01-27T14:41:30.832Z,0.83
2023-01-27T14:44:38.347Z,0.83
2023-01-27T14:47:43.777Z,0.81
2023-01-27T14:50:57.195Z,0.79
2023-01-27T14:54:01.535Z,0.76
2023-01-27T14:56:45.970Z,0.76
2023-01-27T14:59:49.389Z,0.77
2023-01-27T15:02:49.193Z,0.75
2023-01-27T15:15:08.225Z,0.64
2023-01-27T15:18:15.294Z,0.60
2023-01-27T15:21:21.301Z,0.58
2023-01-27T15:24:34.835Z,0.57
2023-01-27T15:27:29.193Z,0.56
2023-01-27T15:30:27.449Z,0.56
2023-01-27T15:33:51.174Z,0.56
2023-01-27T15:36:36.154Z,0.56
2023-01-27T15:39:25.917Z,0.54
2023-01-27T15:42:49.465Z,0.53
2023-01-27T15:45:41.918Z,0.52
2023-01-27T15:48:38.168Z,0.50
2023-01-27T15:51:34.406Z,0.50
2023-01-27T15:54:29.240Z,0.47
2023-01-27T15:57:34.047Z,0.46
2023-01-27T16:00:29.824Z,0.45
2023-01-27T16:03:25.583Z,0.46
2023-01-27T16:06:17.092Z,0.47
2023-01-27T16:09:08.419Z,0.45
2023-01-27T16:12:04.318Z,0.42
2023-01-27T16:15:22.087Z,0.39
2023-01-27T16:18:27.003Z,0.39
2023-01-27T16:21:35.948Z,0.41
2023-01-27T16:24:31.394Z,0.44
2023-01-27T16:27:34.844Z,0.46
2023-01-27T16:30:28.626Z,0.48
2023-01-27T16:33:22.511Z,0.50
2023-01-27T16:36:27.677Z,0.51
2023-01-27T16:39:35.363Z,0.51
2023-01-27T16:42:36.083Z,0.47
2023-01-27T16:45:30.317Z,0.45
2023-01-27T16:48:27.870Z,0.41
2023-01-27T16:51:14.252Z,0.39
2023-01-27T16:54:21.513Z,0.38
2023-01-27T16:57:29.858Z,0.41
2023-01-27T17:00:26.266Z,0.42
2023-01-27T17:03:20.588Z,0.42
2023-01-27T17:06:15.806Z,0.41
2023-01-27T17:09:22.743Z,0.40
2023-01-27T17:12:29.909Z,0.37
2023-01-27T17:15:29.112Z,0.34
2023-01-27T17:18:21.594Z,0.31
2023-01-27T17:21:11.612Z,0.29
2023-01-27T17:24:06.264Z,0.30
2023-01-27T17:27:02.813Z,0.31
2023-01-27T17:30:03.945Z,0.31
2023-01-27T17:33:00.535Z,0.30
2023-01-27T17:35:56.366Z,0.30
2023-01-27T17:38:48.135Z,0.29
2023-01-27T17:41:38.743Z,0.27
2023-01-27T17:44:28.018Z,0.28
2023-01-27T17:47:23.437Z,0.27
2023-01-27T17:50:17.764Z,0.27
2023-01-27T17:53:11.470Z,0.26
2023-01-27T17:56:23.995Z,0.26
2023-01-27T17:59:21.951Z,0.30
2023-01-27T18:02:25.016Z,0.35
2023-01-27T18:05:14.459Z,0.41
2023-01-27T18:08:06.720Z,0.42
2023-01-27T18:11:09.909Z,0.41
2023-01-27T18:14:22.938Z,0.40
2023-01-27T18:17:27.444Z,0.40
2023-01-27T18:20:30.240Z,0.38
2023-01-27T18:23:30.775Z,0.36
2023-01-27T18:26:24.852Z,0.37
2023-01-27T18:29:25.620Z,0.37
2023-01-27T18:32:26.824Z,0.36
2023-01-27T18:35:28.189Z,0.37
2023-01-27T18:38:27.743Z,0.38
2023-01-27T18:41:10.898Z,0.37
2023-01-27T18:44:02.648Z,0.37
2023-01-27T18:46:52.715Z,0.41
2023-01-27T18:49:53.696Z,0.41
2023-01-27T18:52:44.223Z,0.39
2023-01-27T18:55:35.178Z,0.39
2023-01-27T18:58:25.290Z,0.40
2023-01-27T19:01:24.806Z,0.36
2023-01-27T19:04:15.040Z,0.31
2023-01-27T19:07:17.750Z,0.28
2023-01-27T19:10:16.765Z,0.28
2023-01-27T19:13:08.805Z,0.32
2023-01-27T19:16:01.402Z,0.35
2023-01-27T19:18:44.572Z,0.37
2023-01-27T19:21:37.546Z,0.38
2023-01-27T19:24:27.190Z,0.33
2023-01-27T19:27:28.053Z,0.31
2023-01-27T19:30:26.495Z,0.30
2023-01-27T19:33:18.228Z,0.27
2023-01-27T19:36:24.014Z,0.22
2023-01-27T19:39:17.373Z,0.18
2023-01-27T19:42:14.769Z,0.16
2023-01-27T19:45:14.480Z,0.18
2023-01-27T19:48:38.952Z,0.22
2023-01-27T19:51:43.863Z,0.24
2023-01-27T19:54:37.656Z,0.23
2023-01-27T19:57:34.980Z,0.22
2023-01-27T20:00:29.925Z,0.21
2023-01-27T20:03:41.054Z,0.23
2023-01-27T20:07:10.012Z,0.22
2023-01-27T20:10:22.119Z,0.17
2023-01-27T20:13:18.171Z,0.12
2023-01-27T20:16:12.981Z,0.10
2023-01-27T20:19:14.990Z,0.12
2023-01-27T20:22:38.156Z,0.14
2023-01-27T20:25:32.221Z,0.16
2023-01-27T20:28:23.949Z,0.19
2023-01-27T20:31:25.079Z,0.19
2023-01-27T20:34:18.570Z,0.20
2023-01-27T20:37:09.702Z,0.22
2023-01-27T20:40:27.842Z,0.20
2023-01-27T20:43:33.729Z,0.15
2023-01-27T20:46:30.792Z,0.11
2023-01-27T20:50:46.404Z,0.12
2023-01-27T20:52:44.918Z,0.14
2023-01-27T20:55:54.229Z,0.14
2023-01-27T20:59:23.066Z,0.13
2023-01-27T21:02:17.518Z,0.16
2023-01-27T21:05:11.122Z,0.23
2023-01-27T21:08:07.789Z,0.26
2023-01-27T21:11:00.328Z,0.23
2023-01-27T21:14:02.355Z,0.21
2023-01-27T21:16:54.761Z,0.18
2023-01-27T21:19:50.301Z,0.14
2023-01-27T21:22:47.456Z,0.11
2023-01-27T21:25:39.569Z,0.09
2023-01-27T21:28:55.204Z,0.09
2023-01-27T21:31:46.800Z,0.09
2023-01-27T21:34:39.643Z,0.10
2023-01-27T21:37:32.649Z,0.10
2023-01-27T21:40:26.178Z,0.10
2023-01-27T21:43:29.628Z,0.10
2023-01-27T21:47:26.755Z,0.12
2023-01-27T21:49:57.606Z,0.10
2023-01-27T21:52:49.544Z,0.08
2023-01-27T21:55:39.676Z,0.08
2023-01-27T21:58:30.198Z,0.06
2023-01-27T22:01:21.067Z,0.03
2023-01-27T22:04:10.600Z,-0.01
2023-01-27T22:07:21.450Z,-0.04
2023-01-27T22:10:21.932Z,-0.04
2023-01-27T22:13:15.744Z,-0.03
2023-01-27T22:16:18.799Z,-0.05
2023-01-27T22:19:09.705Z,-0.05
2023-01-27T22:22:01.688Z,-0.05
2023-01-27T22:25:01.896Z,-0.06
2023-01-27T22:27:55.568Z,-0.06
2023-01-27T22:30:45.224Z,-0.09
2023-01-27T22:34:01.480Z,-0.11
2023-01-27T22:36:56.357Z,-0.11
2023-01-27T22:39:46.635Z,-0.12
2023-01-27T22:42:46.615Z,-0.13
2023-01-27T22:45:40.839Z,-0.10
2023-01-27T22:48:32.105Z,-0.08
2023-01-27T22:51:25.372Z,-0.07
2023-01-27T22:54:15.152Z,-0.05
2023-01-27T22:57:30.423Z,-0.03
2023-01-27T23:00:22.984Z,-0.03
2023-01-27T23:03:16.412Z,-0.03
2023-01-27T23:06:09.796Z,-0.03
2023-01-27T23:08:48.858Z,-0.02
2023-01-27T23:11:38.799Z,-0.03
2023-01-27T23:14:28.526Z,-0.03
2023-01-27T23:17:20.990Z,-0.01
2023-01-27T23:20:03.366Z,-0.02
2023-01-27T23:22:55.096Z,-0.04
2023-01-27T23:25:46.515Z,-0.00
2023-01-27T23:28:29.170Z,0.01
2023-01-27T23:31:15.119Z,0.00
2023-01-27T23:34:06.645Z,0.03
2023-01-27T23:36:56.177Z,-0.01
2023-01-27T23:39:48.086Z,-0.03
2023-01-27T23:42:37.898Z,-0.02
2023-01-27T23:45:28.860Z,-0.04
2023-01-27T23:48:18.382Z,-0.06
2023-01-27T23:51:10.406Z,-0.12
2023-01-27T23:54:01.557Z,-0.18
2023-01-27T23:56:51.405Z,-0.24
2023-01-27T23:59:41.826Z,-0.28
